createdAt,value
2018-10-02T00:01:54.822Z,7.70
2018-10-02T00:04:23.802Z,7.70
2018-10-02T00:06:53.066Z,7.70
2018-10-02T00:09:22.102Z,7.70
2018-10-02T00:11:56.605Z,7.80
2018-10-02T00:14:27.722Z,7.80
2018-10-02T00:16:57.188Z,7.80
2018-10-02T00:19:26.196Z,7.80
2018-10-02T00:21:55.242Z,7.80
2018-10-02T00:24:24.285Z,7.90
2018-10-02T00:26:53.252Z,7.90
2018-10-02T00:29:22.250Z,7.90
2018-10-02T00:31:51.364Z,7.90
2018-10-02T00:34:20.268Z,7.90
2018-10-02T00:36:49.244Z,7.90
2018-10-02T00:39:18.189Z,7.90
2018-10-02T00:41:47.351Z,7.90
2018-10-02T00:44:16.305Z,7.90
2018-10-02T00:46:45.302Z,8.00
2018-10-02T00:49:14.254Z,8.00
2018-10-02T00:51:43.221Z,8.10
2018-10-02T00:54:12.217Z,8.10
2018-10-02T00:56:41.218Z,8.10
2018-10-02T00:59:10.194Z,8.10
2018-10-02T01:01:39.146Z,8.10
2018-10-02T01:04:08.129Z,8.10
2018-10-02T01:06:37.259Z,8.10
2018-10-02T01:09:08.702Z,8.10
2018-10-02T01:11:39.098Z,8.00
2018-10-02T01:14:08.070Z,8.00
2018-10-02T01:16:37.498Z,8.10
2018-10-02T01:19:06.573Z,8.10
2018-10-02T01:21:35.596Z,8.10
2018-10-02T01:24:04.889Z,8.10
2018-10-02T01:26:33.841Z,8.10
2018-10-02T01:29:02.770Z,8.10
2018-10-02T01:31:31.905Z,8.10
2018-10-02T01:34:00.881Z,8.00
2018-10-02T01:36:29.978Z,8.10
2018-10-02T01:38:59.026Z,8.10
2018-10-02T01:41:28.042Z,8.10
2018-10-02T01:43:57.380Z,8.10
2018-10-02T01:46:26.562Z,8.10
2018-10-02T01:48:55.548Z,8.10
2018-10-02T01:51:24.550Z,8.10
2018-10-02T01:53:53.503Z,8.10
2018-10-02T01:56:22.531Z,8.10
2018-10-02T01:58:51.594Z,8.00
2018-10-02T02:01:20.857Z,8.10
2018-10-02T02:03:49.809Z,8.10
2018-10-02T02:06:18.995Z,8.10
2018-10-02T02:08:48.431Z,8.10
2018-10-02T02:11:17.614Z,8.10
2018-10-02T02:13:46.612Z,8.10
2018-10-02T02:16:15.845Z,8.10
2018-10-02T02:18:46.026Z,8.10
2018-10-02T02:21:15.207Z,8.00
2018-10-02T02:23:44.167Z,8.00
2018-10-02T02:26:13.166Z,8.10
2018-10-02T02:28:42.298Z,8.10
2018-10-02T02:31:11.265Z,8.10
2018-10-02T02:33:40.310Z,8.10
2018-10-02T02:36:09.751Z,8.10
2018-10-02T02:38:38.756Z,8.10
2018-10-02T02:41:07.782Z,8.20
2018-10-02T02:43:36.771Z,8.20
2018-10-02T02:46:05.866Z,8.20
2018-10-02T02:48:40.257Z,8.20
2018-10-02T02:51:14.702Z,8.20
2018-10-02T02:53:44.164Z,8.20
2018-10-02T02:56:13.295Z,8.20
2018-10-02T02:58:42.250Z,8.30
2018-10-02T03:01:11.232Z,8.30
2018-10-02T03:03:40.239Z,8.30
2018-10-02T03:06:09.866Z,8.30
2018-10-02T03:08:38.933Z,8.30
2018-10-02T03:11:07.850Z,8.30
2018-10-02T03:13:37.066Z,8.40
2018-10-02T03:16:06.248Z,8.40
2018-10-02T03:18:35.237Z,8.40
2018-10-02T03:21:04.273Z,8.40
2018-10-02T03:23:33.378Z,8.40
2018-10-02T03:26:02.387Z,8.40
2018-10-02T03:28:31.929Z,8.40
2018-10-02T03:31:01.875Z,8.40
2018-10-02T03:33:31.137Z,8.40
2018-10-02T03:36:00.267Z,8.50
2018-10-02T03:38:29.262Z,8.40
2018-10-02T03:40:58.482Z,8.40
2018-10-02T03:43:27.474Z,8.50
2018-10-02T03:45:56.661Z,8.40
2018-10-02T03:48:25.657Z,8.40
2018-10-02T03:50:54.758Z,8.40
2018-10-02T03:53:23.846Z,8.50
2018-10-02T03:55:52.796Z,8.50
2018-10-02T03:58:21.838Z,8.50
2018-10-02T04:00:50.906Z,8.50
2018-10-02T04:03:20.011Z,8.50
2018-10-02T04:05:48.981Z,8.50
2018-10-02T04:08:18.196Z,8.50
2018-10-02T04:10:47.241Z,8.40
2018-10-02T04:13:16.233Z,8.50
2018-10-02T04:15:45.393Z,8.50
2018-10-02T04:18:14.575Z,8.50
2018-10-02T04:20:43.531Z,8.50
2018-10-02T04:23:12.506Z,8.50
2018-10-02T04:25:41.668Z,8.60
2018-10-02T04:28:10.766Z,8.60
2018-10-02T04:30:39.746Z,8.60
2018-10-02T04:33:08.770Z,8.60
2018-10-02T04:35:37.853Z,8.60
2018-10-02T04:38:06.837Z,8.60
2018-10-02T04:40:35.850Z,8.60
2018-10-02T04:43:04.795Z,8.70
2018-10-02T04:45:34.003Z,8.70
2018-10-02T04:48:03.077Z,8.70
2018-10-02T04:50:32.232Z,8.70
2018-10-02T04:53:01.241Z,8.70
2018-10-02T04:55:30.197Z,8.70
2018-10-02T04:57:59.282Z,8.70
2018-10-02T05:00:29.411Z,8.80
2018-10-02T05:02:58.425Z,8.80
2018-10-02T05:05:27.446Z,8.80
2018-10-02T05:07:56.546Z,8.80
2018-10-02T05:10:25.631Z,8.80
2018-10-02T05:12:54.750Z,8.80
2018-10-02T05:15:23.695Z,8.80
2018-10-02T05:17:52.687Z,8.80
2018-10-02T05:20:21.669Z,8.90
2018-10-02T05:22:50.673Z,8.80
2018-10-02T05:25:19.605Z,8.80
2018-10-02T05:27:48.750Z,8.80
2018-10-02T05:30:17.654Z,8.80
2018-10-02T05:32:46.633Z,8.80
2018-10-02T05:35:15.982Z,8.80
2018-10-02T05:37:44.798Z,8.80
2018-10-02T05:40:14.114Z,8.80
2018-10-02T05:42:43.097Z,8.80
2018-10-02T05:45:12.098Z,8.90
2018-10-02T05:47:42.237Z,8.90
2018-10-02T05:50:11.282Z,8.90
2018-10-02T05:52:40.306Z,8.90
2018-10-02T05:55:09.330Z,8.90
2018-10-02T05:57:39.138Z,8.90
2018-10-02T06:00:09.228Z,8.80
2018-10-02T06:02:38.425Z,8.80
2018-10-02T06:05:07.483Z,8.80
2018-10-02T06:07:36.437Z,8.80
2018-10-02T06:10:05.810Z,8.80
2018-10-02T06:12:34.777Z,8.80
2018-10-02T06:15:03.797Z,8.70
2018-10-02T06:17:32.882Z,8.60
2018-10-02T06:20:01.866Z,8.60
2018-10-02T06:22:31.006Z,8.60
2018-10-02T06:25:00.086Z,8.60
2018-10-02T06:27:30.209Z,8.60
2018-10-02T06:29:59.230Z,8.60
2018-10-02T06:32:29.342Z,8.60
2018-10-02T06:34:58.346Z,8.60
2018-10-02T06:37:27.331Z,8.60
2018-10-02T06:39:56.342Z,8.60
2018-10-02T06:42:25.351Z,8.60
2018-10-02T06:44:54.487Z,8.70
2018-10-02T06:47:23.638Z,8.70
2018-10-02T06:49:52.624Z,8.60
2018-10-02T06:52:21.921Z,8.70
2018-10-02T06:54:50.713Z,8.70
2018-10-02T06:57:19.686Z,8.70
2018-10-02T06:59:48.682Z,8.70
2018-10-02T07:02:17.789Z,8.70
2018-10-02T07:04:46.699Z,8.80
2018-10-02T07:07:15.662Z,8.80
2018-10-02T07:09:45.165Z,8.90
2018-10-02T07:12:14.110Z,9.00
2018-10-02T07:14:43.115Z,9.00
2018-10-02T07:17:12.371Z,9.10
2018-10-02T07:19:41.399Z,9.20
2018-10-02T07:22:10.629Z,9.20
2018-10-02T07:24:39.569Z,9.30
2018-10-02T07:27:08.697Z,9.30
2018-10-02T07:29:37.675Z,9.40
2018-10-02T07:32:07.783Z,9.40
2018-10-02T07:34:36.925Z,9.50
2018-10-02T07:37:06.002Z,9.50
2018-10-02T07:39:34.954Z,9.50
2018-10-02T07:42:03.961Z,9.50
2018-10-02T07:44:33.027Z,9.60
2018-10-02T07:47:01.979Z,9.60
2018-10-02T07:49:30.941Z,9.60
2018-10-02T07:51:59.921Z,9.70
2018-10-02T07:54:28.883Z,9.70
2018-10-02T07:56:57.904Z,9.70
2018-10-02T07:59:26.864Z,9.70
2018-10-02T08:01:56.006Z,9.70
2018-10-02T08:04:25.153Z,9.80
2018-10-02T08:06:54.142Z,9.80
2018-10-02T08:09:23.195Z,9.90
2018-10-02T08:11:52.826Z,9.90
2018-10-02T08:14:21.993Z,9.90
2018-10-02T08:16:51.101Z,9.90
2018-10-02T08:19:20.089Z,9.80
2018-10-02T08:21:49.509Z,9.80
2018-10-02T08:24:18.799Z,9.80
2018-10-02T08:26:48.007Z,9.80
2018-10-02T08:29:17.142Z,9.70
2018-10-02T08:31:46.463Z,9.80
2018-10-02T08:34:15.398Z,9.70
2018-10-02T08:36:44.379Z,9.80
2018-10-02T08:39:13.524Z,9.80
2018-10-02T08:41:42.600Z,9.90
2018-10-02T08:44:11.732Z,9.90
2018-10-02T08:46:40.836Z,9.90
2018-10-02T08:49:09.806Z,9.90
2018-10-02T08:51:38.815Z,10.00
2018-10-02T08:54:07.863Z,10.00
2018-10-02T08:56:36.906Z,10.10
2018-10-02T08:59:06.228Z,10.10
2018-10-02T09:01:35.217Z,10.10
2018-10-02T09:04:04.226Z,10.20
2018-10-02T09:06:33.356Z,10.20
2018-10-02T09:09:02.362Z,10.30
2018-10-02T09:11:31.542Z,10.30
2018-10-02T09:14:00.662Z,10.30
2018-10-02T09:16:30.174Z,10.40
2018-10-02T09:18:59.236Z,10.40
2018-10-02T09:21:28.263Z,10.40
2018-10-02T09:23:57.339Z,10.40
2018-10-02T09:26:27.508Z,10.40
2018-10-02T09:28:56.726Z,10.40
2018-10-02T09:31:31.160Z,10.50
2018-10-02T09:34:05.828Z,10.50
2018-10-02T09:36:40.544Z,10.50
2018-10-02T09:39:15.101Z,10.50
2018-10-02T09:41:49.696Z,10.40
2018-10-02T09:44:18.826Z,10.40
2018-10-02T09:46:47.995Z,10.30
2018-10-02T09:49:17.011Z,10.30
2018-10-02T09:51:46.236Z,10.30
2018-10-02T09:54:15.247Z,10.20
2018-10-02T09:56:45.471Z,10.20
2018-10-02T09:59:17.213Z,10.30
2018-10-02T10:01:52.386Z,10.30
2018-10-02T10:04:23.065Z,10.30
2018-10-02T10:06:51.995Z,10.30
2018-10-02T10:09:21.106Z,10.30
2018-10-02T10:11:50.158Z,10.40
2018-10-02T10:14:19.358Z,10.40
2018-10-02T10:16:49.819Z,10.40
2018-10-02T10:19:18.854Z,10.40
2018-10-02T10:21:47.918Z,10.50
2018-10-02T10:24:16.960Z,10.50
2018-10-02T10:26:46.366Z,10.50
2018-10-02T10:29:15.330Z,10.50
2018-10-02T10:31:44.459Z,10.60
2018-10-02T10:34:13.547Z,10.70
2018-10-02T10:36:42.614Z,10.70
2018-10-02T10:39:11.990Z,10.70
2018-10-02T10:41:40.960Z,10.80
2018-10-02T10:44:09.940Z,10.90
2018-10-02T10:46:39.150Z,10.90
2018-10-02T10:49:08.618Z,10.90
2018-10-02T10:51:37.742Z,10.90
2018-10-02T10:54:06.726Z,11.00
2018-10-02T10:56:35.850Z,11.00
2018-10-02T10:59:04.931Z,11.00
2018-10-02T11:01:33.984Z,11.00
2018-10-02T11:04:03.034Z,11.00
2018-10-02T11:06:32.165Z,11.10
2018-10-02T11:09:01.186Z,11.10
2018-10-02T11:11:30.234Z,11.10
2018-10-02T11:13:59.359Z,11.10
2018-10-02T11:16:28.289Z,11.10
2018-10-02T11:18:57.310Z,11.20
2018-10-02T11:21:26.551Z,11.20
2018-10-02T11:23:55.677Z,11.30
2018-10-02T11:26:24.802Z,11.30
2018-10-02T11:28:53.886Z,11.30
2018-10-02T11:31:23.032Z,11.30
2018-10-02T11:33:52.047Z,11.30
2018-10-02T11:36:21.059Z,11.40
2018-10-02T11:38:50.283Z,11.40
2018-10-02T11:41:19.433Z,11.50
2018-10-02T11:43:48.520Z,11.50
2018-10-02T11:46:17.570Z,11.50
2018-10-02T11:48:46.717Z,11.60
2018-10-02T11:51:15.683Z,11.60
2018-10-02T11:53:44.960Z,11.60
2018-10-02T11:56:14.106Z,11.60
2018-10-02T11:58:43.125Z,11.60
2018-10-02T12:01:12.317Z,11.70
2018-10-02T12:03:41.344Z,11.70
2018-10-02T12:06:10.330Z,11.70
2018-10-02T12:08:39.498Z,11.70
2018-10-02T12:11:08.713Z,11.80
2018-10-02T12:13:37.889Z,11.80
2018-10-02T12:16:07.589Z,11.80
2018-10-02T12:18:36.612Z,11.80
2018-10-02T12:21:06.164Z,11.90
2018-10-02T12:23:35.437Z,12.00
2018-10-02T12:26:04.698Z,12.10
2018-10-02T12:28:33.769Z,12.10
2018-10-02T12:31:02.937Z,12.10
2018-10-02T12:33:31.967Z,12.20
2018-10-02T12:36:01.048Z,12.20
2018-10-02T12:38:30.310Z,12.30
2018-10-02T12:40:59.351Z,12.40
2018-10-02T12:43:28.492Z,12.50
2018-10-02T12:45:57.537Z,12.60
2018-10-02T12:48:26.675Z,12.60
2018-10-02T12:50:55.846Z,12.60
2018-10-02T12:53:24.906Z,12.70
2018-10-02T12:55:54.012Z,12.80
2018-10-02T12:58:23.215Z,12.90
2018-10-02T13:00:52.183Z,13.00
2018-10-02T13:03:21.287Z,13.00
2018-10-02T13:05:51.435Z,13.10
2018-10-02T13:08:20.509Z,13.20
2018-10-02T13:10:49.584Z,13.40
2018-10-02T13:13:18.767Z,13.50
2018-10-02T13:15:47.778Z,13.70
2018-10-02T13:18:16.892Z,13.80
2018-10-02T13:20:45.905Z,13.90
2018-10-02T13:23:14.898Z,14.10
2018-10-02T13:25:43.950Z,14.20
2018-10-02T13:28:13.210Z,14.20
2018-10-02T13:30:42.262Z,14.30
2018-10-02T13:33:11.453Z,14.20
2018-10-02T13:35:40.594Z,14.10
2018-10-02T13:38:09.667Z,14.20
2018-10-02T13:40:38.986Z,14.20
2018-10-02T13:43:08.046Z,14.30
2018-10-02T13:45:37.348Z,14.30
2018-10-02T13:48:06.496Z,14.40
2018-10-02T13:50:35.701Z,14.40
2018-10-02T13:53:04.672Z,14.60
2018-10-02T13:55:33.750Z,14.60
2018-10-02T13:58:02.930Z,14.60
2018-10-02T14:00:32.246Z,14.70
2018-10-02T14:03:01.859Z,14.70
2018-10-02T14:05:31.305Z,14.60
2018-10-02T14:08:00.331Z,14.70
2018-10-02T14:10:29.536Z,14.80
2018-10-02T14:12:59.226Z,14.90
2018-10-02T14:15:28.420Z,15.00
2018-10-02T14:17:58.600Z,14.90
2018-10-02T14:20:27.661Z,15.00
2018-10-02T14:22:56.886Z,14.90
2018-10-02T14:25:26.009Z,14.90
2018-10-02T14:27:55.004Z,14.90
2018-10-02T14:30:24.081Z,15.10
2018-10-02T14:32:54.174Z,15.20
2018-10-02T14:35:23.249Z,15.30
2018-10-02T14:37:53.504Z,15.30
2018-10-02T14:40:26.774Z,15.30
2018-10-02T14:42:56.857Z,15.20
2018-10-02T14:45:25.881Z,15.20
2018-10-02T14:47:54.846Z,15.20
2018-10-02T14:50:23.894Z,15.20
2018-10-02T14:52:53.003Z,15.20
2018-10-02T14:55:22.098Z,15.20
2018-10-02T14:57:52.202Z,15.30
2018-10-02T15:00:21.187Z,15.40
2018-10-02T15:02:50.354Z,15.40
2018-10-02T15:05:19.888Z,15.50
2018-10-02T15:07:49.034Z,15.50
2018-10-02T15:10:18.080Z,15.70
2018-10-02T15:12:47.087Z,15.70
2018-10-02T15:15:16.261Z,15.70
2018-10-02T15:17:45.499Z,15.70
2018-10-02T15:20:14.514Z,15.80
2018-10-02T15:22:43.576Z,15.90
2018-10-02T15:25:12.984Z,15.90
2018-10-02T15:27:42.159Z,15.90
2018-10-02T15:30:11.375Z,15.90
2018-10-02T15:32:40.579Z,15.80
2018-10-02T15:35:09.729Z,15.70
2018-10-02T15:37:38.759Z,15.70
2018-10-02T15:40:07.767Z,15.80
2018-10-02T15:42:37.827Z,15.70
2018-10-02T15:45:07.026Z,15.80
2018-10-02T15:47:36.129Z,15.80
2018-10-02T15:50:05.183Z,16.00
2018-10-02T15:52:34.342Z,16.10
2018-10-02T15:55:03.762Z,16.10
2018-10-02T15:57:32.958Z,16.00
2018-10-02T16:00:02.442Z,15.90
2018-10-02T16:02:31.627Z,15.80
2018-10-02T16:05:00.730Z,15.60
2018-10-02T16:07:29.997Z,15.50
2018-10-02T16:09:59.055Z,15.40
2018-10-02T16:12:28.200Z,15.40
2018-10-02T16:14:57.253Z,15.40
2018-10-02T16:17:26.372Z,15.40
2018-10-02T16:19:55.399Z,15.50
2018-10-02T16:22:24.502Z,15.50
2018-10-02T16:24:53.747Z,15.50
2018-10-02T16:27:23.309Z,15.40
2018-10-02T16:29:52.326Z,15.30
2018-10-02T16:32:21.305Z,15.20
2018-10-02T16:34:50.462Z,15.20
2018-10-02T16:37:19.656Z,15.10
2018-10-02T16:39:48.646Z,15.00
2018-10-02T16:42:17.741Z,14.90
2018-10-02T16:44:46.795Z,14.90
2018-10-02T16:47:15.955Z,14.80
2018-10-02T16:49:44.986Z,14.80
2018-10-02T16:52:14.219Z,14.70
2018-10-02T16:54:43.258Z,14.60
2018-10-02T16:57:12.326Z,14.60
2018-10-02T16:59:41.345Z,14.50
2018-10-02T17:02:10.312Z,14.40
2018-10-02T17:04:39.394Z,14.40
2018-10-02T17:07:08.482Z,14.30
2018-10-02T17:09:37.518Z,14.20
2018-10-02T17:12:06.646Z,14.20
2018-10-02T17:14:35.756Z,14.20
2018-10-02T17:17:05.001Z,14.20
2018-10-02T17:19:34.029Z,14.10
2018-10-02T17:22:02.978Z,14.10
2018-10-02T17:24:32.003Z,14.00
2018-10-02T17:27:02.157Z,14.00
2018-10-02T17:29:31.633Z,13.90
2018-10-02T17:32:00.850Z,13.90
2018-10-02T17:34:30.043Z,13.90
2018-10-02T17:36:59.215Z,13.80
2018-10-02T17:39:28.218Z,13.80
2018-10-02T17:41:57.338Z,13.70
2018-10-02T17:44:26.574Z,13.60
2018-10-02T17:46:55.692Z,13.60
2018-10-02T17:49:24.822Z,13.50
2018-10-02T17:51:53.891Z,13.50
2018-10-02T17:54:23.036Z,13.50
2018-10-02T17:56:52.113Z,13.50
2018-10-02T17:59:21.342Z,13.40
2018-10-02T18:01:50.650Z,13.40
2018-10-02T18:04:19.804Z,13.40
2018-10-02T18:06:49.015Z,13.40
2018-10-02T18:09:18.264Z,13.30
2018-10-02T18:11:47.458Z,13.40
2018-10-02T18:14:17.719Z,13.30
2018-10-02T18:16:47.028Z,13.30
2018-10-02T18:19:16.170Z,13.20
2018-10-02T18:21:45.307Z,13.20
2018-10-02T18:24:14.469Z,13.20
2018-10-02T18:26:43.557Z,13.20
2018-10-02T18:29:12.600Z,13.10
2018-10-02T18:31:41.674Z,13.10
2018-10-02T18:34:10.680Z,13.10
2018-10-02T18:36:39.709Z,13.10
2018-10-02T18:39:08.933Z,13.00
2018-10-02T18:41:38.005Z,13.10
2018-10-02T18:44:07.498Z,13.00
2018-10-02T18:46:36.905Z,12.90
2018-10-02T18:49:06.357Z,12.90
2018-10-02T18:51:35.442Z,12.90
2018-10-02T18:54:04.555Z,12.90
2018-10-02T18:56:33.741Z,12.90
2018-10-02T18:59:02.966Z,12.90
2018-10-02T19:01:32.175Z,12.90
2018-10-02T19:04:01.265Z,12.80
2018-10-02T19:06:31.310Z,12.80
2018-10-02T19:09:05.975Z,12.80
2018-10-02T19:11:40.376Z,12.70
2018-10-02T19:14:09.566Z,12.70
2018-10-02T19:16:38.659Z,12.60
2018-10-02T19:19:12.065Z,12.70
2018-10-02T19:21:41.086Z,12.70
2018-10-02T19:24:10.120Z,12.70
2018-10-02T19:26:39.313Z,12.60
2018-10-02T19:29:08.708Z,12.60
2018-10-02T19:31:43.190Z,12.60
2018-10-02T19:34:12.345Z,12.60
2018-10-02T19:36:41.338Z,12.50
2018-10-02T19:39:12.686Z,12.50
2018-10-02T19:41:41.696Z,12.50
2018-10-02T19:44:10.862Z,12.40
2018-10-02T19:46:40.478Z,12.40
2018-10-02T19:49:09.679Z,12.40
2018-10-02T19:51:44.058Z,12.40
2018-10-02T19:54:13.625Z,12.30
2018-10-02T19:56:42.841Z,12.30
2018-10-02T19:59:11.950Z,12.30
2018-10-02T20:01:41.210Z,12.30
2018-10-02T20:04:10.332Z,12.30
2018-10-02T20:06:39.499Z,12.30
2018-10-02T20:09:08.835Z,12.30
2018-10-02T20:11:38.127Z,12.30
2018-10-02T20:14:07.739Z,12.30
2018-10-02T20:16:36.866Z,12.40
2018-10-02T20:19:06.393Z,12.30
2018-10-02T20:21:35.788Z,12.40
2018-10-02T20:24:04.850Z,12.40
2018-10-02T20:26:35.074Z,12.40
2018-10-02T20:29:04.130Z,12.40
2018-10-02T20:31:35.568Z,12.40
2018-10-02T20:34:04.666Z,12.40
2018-10-02T20:36:33.814Z,12.40
2018-10-02T20:39:02.930Z,12.40
2018-10-02T20:41:32.200Z,12.40
2018-10-02T20:44:01.345Z,12.40
2018-10-02T20:46:30.387Z,12.40
2018-10-02T20:48:59.516Z,12.40
2018-10-02T20:51:28.487Z,12.40
2018-10-02T20:53:57.667Z,12.40
2018-10-02T20:56:27.659Z,12.40
2018-10-02T20:58:56.946Z,12.40
2018-10-02T21:01:26.271Z,12.50
2018-10-02T21:03:55.488Z,12.40
2018-10-02T21:06:24.797Z,12.40
2018-10-02T21:08:54.055Z,12.40
2018-10-02T21:11:23.129Z,12.50
2018-10-02T21:13:52.198Z,12.40
2018-10-02T21:16:21.336Z,12.40
2018-10-02T21:18:50.637Z,12.40
2018-10-02T21:21:19.829Z,12.40
2018-10-02T21:23:49.011Z,12.50
2018-10-02T21:26:18.079Z,12.50
2018-10-02T21:28:47.449Z,12.50
2018-10-02T21:31:16.474Z,12.50
2018-10-02T21:33:45.676Z,12.50
2018-10-02T21:36:14.931Z,12.50
2018-10-02T21:38:44.337Z,12.50
2018-10-02T21:41:13.424Z,12.50
2018-10-02T21:43:42.518Z,12.50
2018-10-02T21:46:11.514Z,12.50
2018-10-02T21:48:40.673Z,12.50
2018-10-02T21:51:09.734Z,12.50
2018-10-02T21:53:38.859Z,12.50
2018-10-02T21:56:08.323Z,12.50
2018-10-02T21:58:37.401Z,12.40
2018-10-02T22:01:06.893Z,12.40
2018-10-02T22:03:37.749Z,12.40
2018-10-02T22:06:07.293Z,12.30
2018-10-02T22:08:36.524Z,12.30
2018-10-02T22:11:05.625Z,12.20
2018-10-02T22:13:34.710Z,12.10
2018-10-02T22:16:03.757Z,12.00
2018-10-02T22:18:33.071Z,12.00
2018-10-02T22:21:02.373Z,11.90
2018-10-02T22:23:31.462Z,11.90
2018-10-02T22:26:00.623Z,11.90
2018-10-02T22:28:29.677Z,11.90
2018-10-02T22:30:58.943Z,11.90
2018-10-02T22:33:28.411Z,11.90
2018-10-02T22:35:57.419Z,11.90
2018-10-02T22:38:26.541Z,11.80
2018-10-02T22:40:55.810Z,11.90
2018-10-02T22:43:24.898Z,11.80
2018-10-02T22:45:54.064Z,11.80
2018-10-02T22:48:23.443Z,11.80
2018-10-02T22:50:52.653Z,11.80
2018-10-02T22:53:21.781Z,11.80
2018-10-02T22:55:51.158Z,11.80
2018-10-02T22:58:20.385Z,11.80
2018-10-02T23:00:49.542Z,11.80
2018-10-02T23:03:18.689Z,11.70
2018-10-02T23:05:47.771Z,11.70
2018-10-02T23:08:17.173Z,11.70
2018-10-02T23:10:46.193Z,11.60
2018-10-02T23:13:15.257Z,11.60
2018-10-02T23:15:44.329Z,11.50
2018-10-02T23:18:13.301Z,11.50
2018-10-02T23:20:42.631Z,11.50
2018-10-02T23:23:11.719Z,11.40
2018-10-02T23:25:40.914Z,11.40
2018-10-02T23:28:09.902Z,11.40
2018-10-02T23:30:38.849Z,11.30
2018-10-02T23:33:07.975Z,11.20
2018-10-02T23:35:37.225Z,11.20
2018-10-02T23:38:06.369Z,11.20
2018-10-02T23:40:35.391Z,11.20
2018-10-02T23:43:04.619Z,11.10
2018-10-02T23:45:33.658Z,11.10
2018-10-02T23:48:02.837Z,11.10
2018-10-02T23:50:32.033Z,11.10
2018-10-02T23:53:02.359Z,11.10
2018-10-02T23:55:32.426Z,11.10
2018-10-02T23:58:01.632Z,11.20
